Check out our new BloomSky Weather System.

Active alerts


No alerts


Thunder radar  blitzortung!


Rain radar more information rain snow radar


Visit our other weather sites:

Template documentation
and downloads

And another site



Weather Underground History page Text

Daily Summary for May 15, 2017 Units:  Metric    English   Both
« Previous Day
Next Day »
Daily Weekly Monthly Yearly Custom
  High: Low: Average:
Temperature: 31.3 °C 16.6 °C 24.6 °C
Dew Point: 21.1 °C 16 °C 19.1 °C
Humidity: 98 % 48 % 74 %
Wind Speed: 17.7 km/h 0 km/h 5 km/h
Wind Gust: 25.7 km/h - -
Wind:- - SE
Pressure: 1015.1 hPa 1011.1 hPa -
Precipitation: 0 mm    
Historical Graphs
 
 
Tabular Data for May 15, 2017
Time Temperature Dew Point Pressure Wind Wind Speed Wind Gust Humidity Rainfall Rate (Hourly)
00:00 22.6 °C 19.2 °C 1013.8 hPa SSW 3.2 km/h 6.4 km/h 81 % 0 mm
00:05 22.4 °C 19.2 °C 1013.8 hPa SSW 1.6 km/h 4.8 km/h 82 % 0 mm
00:10 22.3 °C 19.1 °C 1013.8 hPa South 1.6 km/h 4.8 km/h 82 % 0 mm
00:16 22.3 °C 19.3 °C 1013.8 hPa SSE 1.6 km/h 6.4 km/h 83 % 0 mm
00:21 22.2 °C 19.2 °C 1013.8 hPa South 3.2 km/h 6.4 km/h 83 % 0 mm
00:26 22.1 °C 19.1 °C 1013.8 hPa SSW 1.6 km/h 6.4 km/h 83 % 0 mm
00:31 22 °C 19.2 °C 1013.8 hPa South 1.6 km/h 4.8 km/h 84 % 0 mm
00:36 21.9 °C 19.1 °C 1013.8 hPa SSW 1.6 km/h 4.8 km/h 84 % 0 mm
00:41 21.9 °C 19.1 °C 1013.8 hPa Calm   8 km/h 84 % 0 mm
00:46 21.8 °C 19.2 °C 1013.8 hPa SSW 3.2 km/h 8 km/h 85 % 0 mm
00:51 21.8 °C 19.2 °C 1013.8 hPa South 6.4 km/h 8 km/h 85 % 0 mm
00:56 21.7 °C 19.1 °C 1013.8 hPa SSE 1.6 km/h 6.4 km/h 85 % 0 mm
00:58 21.7 °C 19.1 °C 1013.8 hPa Calm   6.4 km/h 85 % 0 mm
01:03 21.7 °C 19.3 °C 1013.4 hPa SSW 1.6 km/h 6.4 km/h 86 % 0 mm
01:08 21.6 °C 19.2 °C 1013.8 hPa SSW 3.2 km/h 6.4 km/h 86 % 0 mm
01:13 21.5 °C 19.1 °C 1013.8 hPa SSE 1.6 km/h 4.8 km/h 86 % 0 mm
01:18 21.6 °C 19.2 °C 1013.8 hPa SSE 1.6 km/h 6.4 km/h 86 % 0 mm
01:23 21.5 °C 19.1 °C 1013.4 hPa Calm   6.4 km/h 86 % 0 mm
01:28 21.4 °C 19 °C 1013.4 hPa Calm   6.4 km/h 86 % 0 mm
01:33 21.4 °C 19 °C 1013.4 hPa Calm   4.8 km/h 86 % 0 mm
01:38 21.3 °C 19 °C 1013.4 hPa Calm   3.2 km/h 87 % 0 mm
01:43 21.2 °C 18.9 °C 1013.4 hPa Calm   3.2 km/h 87 % 0 mm
01:48 20.9 °C 18.7 °C 1013.4 hPa Calm   3.2 km/h 87 % 0 mm
01:53 20.7 °C 18.5 °C 1013.4 hPa Calm   1.6 km/h 87 % 0 mm
01:58 20.6 °C 18.4 °C 1013.4 hPa Calm   1.6 km/h 87 % 0 mm
02:03 20.4 °C 18.3 °C 1013.4 hPa Calm     88 % 0 mm
02:08 20.2 °C 18.1 °C 1013.4 hPa Calm     88 % 0 mm
02:13 20.1 °C 18.2 °C 1013.4 hPa Calm     89 % 0 mm
02:18 20 °C 18.3 °C 1013.4 hPa Calm     90 % 0 mm
02:23 19.9 °C 18.2 °C 1013.1 hPa Calm     90 % 0 mm
02:28 19.9 °C 18.2 °C 1013.1 hPa Calm     90 % 0 mm
02:34 19.7 °C 18.2 °C 1013.1 hPa Calm     91 % 0 mm
02:39 19.6 °C 18.1 °C 1013.1 hPa Calm     91 % 0 mm
02:44 19.5 °C 18 °C 1013.1 hPa Calm     91 % 0 mm
02:49 19.4 °C 18.1 °C 1013.1 hPa Calm     92 % 0 mm
02:54 19.3 °C 18 °C 1013.1 hPa Calm     92 % 0 mm
02:59 19.2 °C 17.9 °C 1012.8 hPa Calm     92 % 0 mm
03:04 19 °C 17.7 °C 1012.8 hPa Calm     92 % 0 mm
03:09 18.9 °C 17.7 °C 1012.8 hPa Calm     93 % 0 mm
03:14 18.9 °C 17.7 °C 1012.8 hPa Calm     93 % 0 mm
03:19 18.8 °C 17.6 °C 1012.8 hPa Calm     93 % 0 mm
03:24 18.7 °C 17.5 °C 1012.8 hPa Calm     93 % 0 mm
03:29 18.6 °C 17.4 °C 1012.8 hPa Calm     93 % 0 mm
03:34 18.5 °C 17.3 °C 1012.8 hPa Calm     93 % 0 mm
03:39 18.4 °C 17.2 °C 1012.8 hPa Calm     93 % 0 mm
03:44 18.3 °C 17.3 °C 1012.8 hPa Calm     94 % 0 mm
03:49 18.2 °C 17 °C 1012.8 hPa Calm     93 % 0 mm
03:54 18.2 °C 17.2 °C 1012.8 hPa Calm     94 % 0 mm
03:59 18.1 °C 17.1 °C 1012.8 hPa Calm     94 % 0 mm
04:04 18.1 °C 17.1 °C 1012.8 hPa Calm     94 % 0 mm
04:05 18.1 °C 17.1 °C 1012.8 hPa Calm     94 % 0 mm
04:10 18.1 °C 17.1 °C 1012.8 hPa Calm     94 % 0 mm
04:15 17.9 °C 16.9 °C 1012.8 hPa Calm     94 % 0 mm
04:20 17.8 °C 16.8 °C 1012.8 hPa Calm     94 % 0 mm
04:25 17.7 °C 16.7 °C 1012.8 hPa Calm     94 % 0 mm
04:30 17.6 °C 16.8 °C 1012.8 hPa Calm     95 % 0 mm
04:35 17.6 °C 16.8 °C 1012.8 hPa Calm     95 % 0 mm
04:40 17.4 °C 16.6 °C 1012.8 hPa Calm     95 % 0 mm
04:45 17.4 °C 16.6 °C 1012.8 hPa Calm     95 % 0 mm
04:50 17.2 °C 16.4 °C 1012.8 hPa Calm     95 % 0 mm
04:55 17.2 °C 16.4 °C 1012.8 hPa Calm     95 % 0 mm
05:00 17.3 °C 16.5 °C 1012.8 hPa Calm     95 % 0 mm
05:05 17.2 °C 16.4 °C 1012.8 hPa Calm     95 % 0 mm
05:10 17.2 °C 16.4 °C 1012.8 hPa Calm     95 % 0 mm
05:15 17.1 °C 16.5 °C 1012.8 hPa Calm     96 % 0 mm
05:20 16.9 °C 16.1 °C 1012.8 hPa Calm     95 % 0 mm
05:25 16.8 °C 16 °C 1012.8 hPa Calm     95 % 0 mm
05:30 16.8 °C 16.2 °C 1013.1 hPa Calm     96 % 0 mm
05:35 16.7 °C 16.1 °C 1012.8 hPa Calm     96 % 0 mm
05:40 16.7 °C 16.1 °C 1012.8 hPa Calm     96 % 0 mm
05:45 16.6 °C 16 °C 1013.1 hPa Calm     96 % 0 mm
05:50 16.8 °C 16.3 °C 1013.1 hPa Calm     97 % 0 mm
05:55 16.9 °C 16.4 °C 1013.1 hPa Calm     97 % 0 mm
06:00 17 °C 16.5 °C 1013.1 hPa Calm     97 % 0 mm
06:05 17 °C 16.5 °C 1013.1 hPa Calm     97 % 0 mm
06:10 17.1 °C 16.6 °C 1013.1 hPa Calm     97 % 0 mm
06:15 17 °C 16.4 °C 1013.1 hPa Calm     96 % 0 mm
06:20 17 °C 16.5 °C 1013.1 hPa Calm     97 % 0 mm
06:25 17.1 °C 16.6 °C 1013.1 hPa Calm     97 % 0 mm
06:30 17.1 °C 16.6 °C 1013.1 hPa Calm     97 % 0 mm
06:35 17.1 °C 16.6 °C 1013.4 hPa Calm     97 % 0 mm
06:40 17.1 °C 16.6 °C 1013.8 hPa Calm     97 % 0 mm
06:45 17 °C 16.4 °C 1013.4 hPa Calm     96 % 0 mm
06:50 16.9 °C 16.4 °C 1013.4 hPa Calm     97 % 0 mm
06:55 16.9 °C 16.4 °C 1013.8 hPa Calm     97 % 0 mm
06:56 16.9 °C 16.4 °C 1013.8 hPa Calm     97 % 0 mm
07:01 16.9 °C 16.4 °C 1013.8 hPa Calm     97 % 0 mm
07:06 17.1 °C 16.6 °C 1013.4 hPa Calm     97 % 0 mm
07:11 17.3 °C 16.8 °C 1013.4 hPa Calm     97 % 0 mm
07:16 17.7 °C 17.4 °C 1013.8 hPa Calm     98 % 0 mm
07:21 18.4 °C 18.1 °C 1013.8 hPa Calm     98 % 0 mm
07:26 18.9 °C 18.6 °C 1013.8 hPa Calm     98 % 0 mm
07:31 19.3 °C 19 °C 1013.8 hPa Calm     98 % 0 mm
07:36 19.8 °C 19.5 °C 1013.8 hPa Calm     98 % 0 mm
07:41 20.2 °C 19.7 °C 1013.8 hPa Calm     97 % 0 mm
07:46 20.7 °C 20.2 °C 1013.8 hPa Calm     97 % 0 mm
07:51 21.2 °C 20.7 °C 1013.4 hPa Calm     97 % 0 mm
07:56 21.6 °C 20.9 °C 1013.4 hPa Calm   1.6 km/h 96 % 0 mm
08:01 21.9 °C 20.9 °C 1013.8 hPa Calm   1.6 km/h 94 % 0 mm
08:06 22.3 °C 21.1 °C 1013.8 hPa Calm   1.6 km/h 93 % 0 mm
08:11 22.7 °C 21 °C 1013.8 hPa ENE 1.6 km/h 1.6 km/h 90 % 0 mm
08:16 22.9 °C 21 °C 1013.8 hPa Calm   3.2 km/h 89 % 0 mm
08:22 23.2 °C 20.5 °C 1013.8 hPa Calm   4.8 km/h 85 % 0 mm
08:27 23.5 °C 20.4 °C 1013.8 hPa East 1.6 km/h 4.8 km/h 83 % 0 mm
08:32 23.8 °C 20.1 °C 1014.1 hPa SE 6.4 km/h 6.4 km/h 80 % 0 mm
08:37 23.8 °C 19.9 °C 1014.1 hPa ESE 3.2 km/h 8 km/h 79 % 0 mm
08:42 23.9 °C 19.8 °C 1014.1 hPa Calm   8 km/h 78 % 0 mm
08:47 24.2 °C 20.1 °C 1014.1 hPa ESE 3.2 km/h 8 km/h 78 % 0 mm
08:52 24.4 °C 19.9 °C 1014.4 hPa Calm   8 km/h 76 % 0 mm
08:57 24.8 °C 20.1 °C 1014.4 hPa SSE 3.2 km/h 8 km/h 75 % 0 mm
09:02 24.8 °C 19.6 °C 1014.4 hPa SSW 1.6 km/h 11.3 km/h 73 % 0 mm
09:07 24.9 °C 19.5 °C 1014.8 hPa SE 4.8 km/h 11.3 km/h 72 % 0 mm
09:12 25.1 °C 19.7 °C 1014.8 hPa SW 3.2 km/h 11.3 km/h 72 % 0 mm
09:17 25.2 °C 19.6 °C 1015.1 hPa SE 6.4 km/h 11.3 km/h 71 % 0 mm
09:22 25.4 °C 19.8 °C 1015.1 hPa SSW 4.8 km/h 11.3 km/h 71 % 0 mm
09:27 25.5 °C 19.9 °C 1014.8 hPa South 1.6 km/h 11.3 km/h 71 % 0 mm
09:32 25.8 °C 20.1 °C 1014.8 hPa SE 9.7 km/h 11.3 km/h 71 % 0 mm
09:37 25.8 °C 19 °C 1014.8 hPa East 6.4 km/h 14.5 km/h 66 % 0 mm
09:42 25.7 °C 18.9 °C 1014.8 hPa East 6.4 km/h 16.1 km/h 66 % 0 mm
09:44 25.7 °C 18.9 °C 1014.8 hPa ENE 6.4 km/h 16.1 km/h 66 % 0 mm
09:49 25.8 °C 19.2 °C 1014.8 hPa SE 12.9 km/h 16.1 km/h 67 % 0 mm
09:50 25.7 °C 18.9 °C 1014.8 hPa ESE 9.7 km/h 17.7 km/h 66 % 0 mm
09:55 25.8 °C 19.2 °C 1014.8 hPa South 11.3 km/h 17.7 km/h 67 % 0 mm
10:00 26.1 °C 19.2 °C 1014.4 hPa SSE 8 km/h 17.7 km/h 66 % 0 mm
10:05 26.1 °C 19 °C 1014.8 hPa South 6.4 km/h 16.1 km/h 65 % 0 mm
10:10 26.2 °C 19.3 °C 1014.4 hPa East 9.7 km/h 14.5 km/h 66 % 0 mm
10:15 26.6 °C 19.5 °C 1014.4 hPa East 12.9 km/h 14.5 km/h 65 % 0 mm
10:20 26.8 °C 18.9 °C 1014.4 hPa SE 12.9 km/h 16.1 km/h 62 % 0 mm
10:25 26.9 °C 19.3 °C 1014.4 hPa ESE 11.3 km/h 16.1 km/h 63 % 0 mm
10:30 27.1 °C 19.2 °C 1014.4 hPa SE 11.3 km/h 16.1 km/h 62 % 0 mm
10:35 26.9 °C 18.7 °C 1014.4 hPa ESE 12.9 km/h 17.7 km/h 61 % 0 mm
10:40 26.8 °C 19.2 °C 1014.4 hPa SE 12.9 km/h 17.7 km/h 63 % 0 mm
10:45 26.8 °C 19.4 °C 1014.4 hPa SSW 4.8 km/h 17.7 km/h 64 % 0 mm
10:50 26.5 °C 19.1 °C 1014.4 hPa South 4.8 km/h 14.5 km/h 64 % 0 mm
10:55 26.7 °C 19.1 °C 1014.4 hPa SSE 3.2 km/h 14.5 km/h 63 % 0 mm
11:01 26.8 °C 19.2 °C 1014.8 hPa SSW 4.8 km/h 12.9 km/h 63 % 0 mm
11:06 26.9 °C 19.3 °C 1014.4 hPa SSW 3.2 km/h 12.9 km/h 63 % 0 mm
11:11 27.1 °C 19.4 °C 1014.4 hPa SE 3.2 km/h 9.7 km/h 63 % 0 mm
11:16 27.6 °C 19.1 °C 1014.4 hPa SE 3.2 km/h 11.3 km/h 60 % 0 mm
11:21 27.6 °C 19.4 °C 1014.4 hPa SSW 8 km/h 12.9 km/h 61 % 0 mm
11:26 27.7 °C 18.4 °C 1014.4 hPa SSW 3.2 km/h 16.1 km/h 57 % 0 mm
11:31 27.9 °C 19.1 °C 1014.4 hPa SE 11.3 km/h 16.1 km/h 59 % 0 mm
11:36 28.2 °C 18.3 °C 1014.4 hPa South 11.3 km/h 16.1 km/h 55 % 0 mm
11:41 28.4 °C 18.2 °C 1014.4 hPa ESE 17.7 km/h 17.7 km/h 54 % 0 mm
11:46 28.5 °C 18.6 °C 1014.4 hPa SE 14.5 km/h 17.7 km/h 55 % 0 mm
11:51 28.3 °C 18.4 °C 1014.4 hPa South 6.4 km/h 19.3 km/h 55 % 0 mm
11:56 28.6 °C 19.2 °C 1014.4 hPa SE 6.4 km/h 19.3 km/h 57 % 0 mm
12:01 28.8 °C 18.9 °C 1014.4 hPa SSW 4.8 km/h 19.3 km/h 55 % 0 mm
12:06 29.1 °C 19.1 °C 1014.4 hPa SE 12.9 km/h 17.7 km/h 55 % 0 mm
12:11 28.9 °C 18.4 °C 1014.4 hPa SE 6.4 km/h 19.3 km/h 53 % 0 mm
12:16 29.2 °C 18.3 °C 1014.1 hPa SE 16.1 km/h 20.9 km/h 52 % 0 mm
12:21 29.2 °C 18.9 °C 1014.1 hPa SSE 12.9 km/h 20.9 km/h 54 % 0 mm
12:26 29.4 °C 18.8 °C 1014.1 hPa SE 12.9 km/h 20.9 km/h 53 % 0 mm
12:31 29.6 °C 19 °C 1014.1 hPa ENE 1.6 km/h 19.3 km/h 53 % 0 mm
12:36 29.8 °C 18.3 °C 1014.1 hPa East 3.2 km/h 19.3 km/h 50 % 0 mm
12:41 29.8 °C 18.6 °C 1013.8 hPa SE 9.7 km/h 19.3 km/h 51 % 0 mm
12:43 29.7 °C 19.4 °C 1013.8 hPa SSE 6.4 km/h 19.3 km/h 54 % 0 mm
12:48 30.3 °C 19.3 °C 1013.8 hPa ESE 4.8 km/h 16.1 km/h 52 % 0 mm
12:53 29.8 °C 19.2 °C 1013.8 hPa SE 8 km/h 19.3 km/h 53 % 0 mm
12:58 29.6 °C 18.7 °C 1013.8 hPa East 8 km/h 19.3 km/h 52 % 0 mm
13:03 29.7 °C 19.4 °C 1013.8 hPa South 8 km/h 19.3 km/h 54 % 0 mm
13:08 29.8 °C 19.2 °C 1013.4 hPa SE 9.7 km/h 17.7 km/h 53 % 0 mm
13:13 30 °C 18.8 °C 1013.4 hPa SSW 4.8 km/h 19.3 km/h 51 % 0 mm
13:18 30.2 °C 19.3 °C 1013.4 hPa SSE 8 km/h 19.3 km/h 52 % 0 mm
13:23 30.3 °C 19.3 °C 1013.1 hPa SSE 11.3 km/h 19.3 km/h 52 % 0 mm
13:28 30.6 °C 18.7 °C 1013.1 hPa SE 4.8 km/h 14.5 km/h 49 % 0 mm
13:38 30.2 °C 19.3 °C 1013.1 hPa SSE 3.2 km/h 17.7 km/h 52 % 0 mm
13:43 30.4 °C 19.7 °C 1013.1 hPa SSE 4.8 km/h 19.3 km/h 53 % 0 mm
13:48 30.6 °C 19.6 °C 1012.8 hPa East 4.8 km/h 19.3 km/h 52 % 0 mm
13:53 30.8 °C 19.5 °C 1012.8 hPa ESE 9.7 km/h 19.3 km/h 51 % 0 mm
13:58 30.7 °C 19.4 °C 1012.8 hPa South 9.7 km/h 19.3 km/h 51 % 0 mm
14:03 30.9 °C 19.3 °C 1012.8 hPa South 11.3 km/h 19.3 km/h 50 % 0 mm
14:08 31 °C 19.7 °C 1012.8 hPa NNW 4.8 km/h 19.3 km/h 51 % 0 mm
14:13 30.9 °C 20.2 °C 1012.8 hPa SE 6.4 km/h 17.7 km/h 53 % 0 mm
14:18 30.6 °C 19.9 °C 1012.8 hPa ESE 9.7 km/h 19.3 km/h 53 % 0 mm
14:23 30.2 °C 20.2 °C 1012.8 hPa SE 6.4 km/h 19.3 km/h 55 % 0 mm
14:28 30.3 °C 20 °C 1012.8 hPa SE 6.4 km/h 19.3 km/h 54 % 0 mm
14:38 30.4 °C 20.3 °C 1012.4 hPa ESE 8 km/h 16.1 km/h 55 % 0 mm
14:43 30.6 °C 20.5 °C 1012.4 hPa NNE 12.9 km/h 16.1 km/h 55 % 0 mm
14:48 30.7 °C 20.3 °C 1012.4 hPa ENE 11.3 km/h 20.9 km/h 54 % 0 mm
14:53 30.8 °C 20.4 °C 1012.1 hPa ENE 8 km/h 20.9 km/h 54 % 0 mm
14:58 30.9 °C 19.9 °C 1012.1 hPa SE 9.7 km/h 20.9 km/h 52 % 0 mm
15:03 30.7 °C 20 °C 1012.1 hPa NW 3.2 km/h 19.3 km/h 53 % 0 mm
15:08 30.6 °C 19.9 °C 1012.1 hPa East 8 km/h 19.3 km/h 53 % 0 mm
15:13 30.7 °C 19.7 °C 1012.1 hPa ESE 8 km/h 20.9 km/h 52 % 0 mm
15:18 31.1 °C 20.4 °C 1012.1 hPa SE 9.7 km/h 20.9 km/h 53 % 0 mm
15:23 31.1 °C 19.8 °C 1011.7 hPa SE 11.3 km/h 20.9 km/h 51 % 0 mm
15:28 31 °C 19.7 °C 1011.7 hPa SE 11.3 km/h 20.9 km/h 51 % 0 mm
15:33 31 °C 20 °C 1011.7 hPa SE 4.8 km/h 20.9 km/h 52 % 0 mm
15:39 30.4 °C 19.1 °C 1012.1 hPa ESE 11.3 km/h 22.5 km/h 51 % 0 mm
15:44 30.2 °C 19.9 °C 1011.7 hPa SE 9.7 km/h 22.5 km/h 54 % 0 mm
15:49 30.7 °C 19.4 °C 1011.7 hPa SW 12.9 km/h 22.5 km/h 51 % 0 mm
15:54 31.1 °C 19.8 °C 1011.7 hPa SE 4.8 km/h 22.5 km/h 51 % 0 mm
15:59 31.2 °C 18.9 °C 1011.7 hPa SSE 6.4 km/h 17.7 km/h 48 % 0 mm
16:04 31.3 °C 19 °C 1011.7 hPa SE 11.3 km/h 19.3 km/h 48 % 0 mm
16:09 30.9 °C 18.6 °C 1011.7 hPa East 9.7 km/h 19.3 km/h 48 % 0 mm
16:14 30.7 °C 20 °C 1011.7 hPa ESE 8 km/h 22.5 km/h 53 % 0 mm
16:19 30.8 °C 19.5 °C 1011.7 hPa SSE 3.2 km/h 22.5 km/h 51 % 0 mm
16:24 30.9 °C 19.3 °C 1011.4 hPa SSE 4.8 km/h 22.5 km/h 50 % 0 mm
16:29 30.7 °C 19.1 °C 1011.4 hPa SE 3.2 km/h 19.3 km/h 50 % 0 mm
16:34 30.6 °C 19 °C 1011.4 hPa ESE 11.3 km/h 17.7 km/h 50 % 0 mm
16:39 30.4 °C 19.4 °C 1011.4 hPa SE 14.5 km/h 22.5 km/h 52 % 0 mm
16:44 30.3 °C 19.3 °C 1011.4 hPa SE 9.7 km/h 25.7 km/h 52 % 0 mm
16:49 30.2 °C 19.6 °C 1011.4 hPa SE 11.3 km/h 25.7 km/h 53 % 0 mm
16:54 29.9 °C 19.6 °C 1011.4 hPa East 12.9 km/h 25.7 km/h 54 % 0 mm
16:59 29.6 °C 19.3 °C 1011.4 hPa SE 9.7 km/h 20.9 km/h 54 % 0 mm
17:04 29.9 °C 19.3 °C 1011.4 hPa SSE 11.3 km/h 24.1 km/h 53 % 0 mm
17:09 29.9 °C 19.6 °C 1011.1 hPa South 6.4 km/h 24.1 km/h 54 % 0 mm
17:14 30.1 °C 19.5 °C 1011.4 hPa ESE 9.7 km/h 24.1 km/h 53 % 0 mm
17:19 29.9 °C 19.9 °C 1011.4 hPa SE 3.2 km/h 24.1 km/h 55 % 0 mm
17:24 29.3 °C 19.6 °C 1011.4 hPa ESE 11.3 km/h 24.1 km/h 56 % 0 mm
17:29 29.2 °C 19.8 °C 1011.1 hPa SE 6.4 km/h 24.1 km/h 57 % 0 mm
17:30 29.2 °C 19.8 °C 1011.1 hPa SE 11.3 km/h 24.1 km/h 57 % 0 mm
17:35 29.5 °C 19.8 °C 1011.1 hPa ESE 8 km/h 24.1 km/h 56 % 0 mm
17:40 29.4 °C 19.7 °C 1011.1 hPa ESE 12.9 km/h 24.1 km/h 56 % 0 mm
17:45 29.2 °C 20.1 °C 1011.4 hPa NW 4.8 km/h 22.5 km/h 58 % 0 mm
17:50 29.1 °C 20 °C 1011.4 hPa South 8 km/h 22.5 km/h 58 % 0 mm
17:55 29.3 °C 20.2 °C 1011.4 hPa East 11.3 km/h 25.7 km/h 58 % 0 mm
18:00 29.2 °C 20.1 °C 1011.4 hPa South 9.7 km/h 25.7 km/h 58 % 0 mm
18:05 29.1 °C 20 °C 1011.4 hPa ESE 9.7 km/h 25.7 km/h 58 % 0 mm
18:10 28.8 °C 19.4 °C 1011.4 hPa SSE 16.1 km/h 22.5 km/h 57 % 0 mm
18:15 28.7 °C 19.9 °C 1011.4 hPa ESE 9.7 km/h 22.5 km/h 59 % 0 mm
18:20 28.8 °C 20 °C 1011.4 hPa ESE 16.1 km/h 22.5 km/h 59 % 0 mm
18:25 28.7 °C 20.2 °C 1011.4 hPa ESE 9.7 km/h 22.5 km/h 60 % 0 mm
18:30 28.5 °C 20 °C 1011.4 hPa ENE 11.3 km/h 22.5 km/h 60 % 0 mm
18:35 28.2 °C 20 °C 1011.4 hPa ESE 4.8 km/h 22.5 km/h 61 % 0 mm
18:40 28 °C 19.8 °C 1011.4 hPa East 8 km/h 17.7 km/h 61 % 0 mm
18:45 27.8 °C 19.6 °C 1011.4 hPa SE 9.7 km/h 16.1 km/h 61 % 0 mm
18:50 27.8 °C 19.6 °C 1011.7 hPa ESE 8 km/h 19.3 km/h 61 % 0 mm
18:55 27.8 °C 19.3 °C 1011.7 hPa ESE 9.7 km/h 19.3 km/h 60 % 0 mm
19:00 27.8 °C 19.8 °C 1011.7 hPa ESE 11.3 km/h 19.3 km/h 62 % 0 mm
19:05 27.6 °C 19.7 °C 1011.7 hPa ESE 9.7 km/h 14.5 km/h 62 % 0 mm
19:10 27.6 °C 19.4 °C 1011.7 hPa ESE 4.8 km/h 17.7 km/h 61 % 0 mm
19:15 27.6 °C 19.4 °C 1011.7 hPa East 6.4 km/h 17.7 km/h 61 % 0 mm
19:20 27.4 °C 19.2 °C 1011.7 hPa ESE 1.6 km/h 17.7 km/h 61 % 0 mm
19:25 27.3 °C 19.4 °C 1011.7 hPa East 12.9 km/h 16.1 km/h 62 % 0 mm
19:30 27.2 °C 19.3 °C 1011.7 hPa ESE 4.8 km/h 17.7 km/h 62 % 0 mm
19:35 27.1 °C 19.7 °C 1012.1 hPa East 3.2 km/h 17.7 km/h 64 % 0 mm
19:40 26.9 °C 19.8 °C 1012.1 hPa East 4.8 km/h 17.7 km/h 65 % 0 mm
19:45 26.7 °C 19.8 °C 1011.7 hPa East 8 km/h 12.9 km/h 66 % 0 mm
19:50 26.6 °C 20 °C 1011.7 hPa ESE 8 km/h 16.1 km/h 67 % 0 mm
19:55 26.4 °C 20 °C 1011.7 hPa East 4.8 km/h 17.7 km/h 68 % 0 mm
20:00 26.3 °C 19.9 °C 1011.7 hPa SE 6.4 km/h 17.7 km/h 68 % 0 mm
20:05 26.1 °C 20 °C 1011.7 hPa East 8 km/h 17.7 km/h 69 % 0 mm
20:10 26 °C 20.1 °C 1011.7 hPa ESE 6.4 km/h 14.5 km/h 70 % 0 mm
20:15 25.9 °C 20.2 °C 1011.7 hPa ESE 3.2 km/h 14.5 km/h 71 % 0 mm
20:20 25.7 °C 20 °C 1011.7 hPa SE 8 km/h 14.5 km/h 71 % 0 mm
20:25 25.6 °C 20.2 °C 1011.7 hPa SSE 1.6 km/h 14.5 km/h 72 % 0 mm
20:30 25.5 °C 20.3 °C 1011.7 hPa ESE 8 km/h 14.5 km/h 73 % 0 mm
20:35 25.4 °C 20.2 °C 1011.7 hPa ESE 9.7 km/h 14.5 km/h 73 % 0 mm
20:40 25.3 °C 20.1 °C 1011.7 hPa East 8 km/h 14.5 km/h 73 % 0 mm
20:45 25.2 °C 20.2 °C 1011.7 hPa SSE 8 km/h 14.5 km/h 74 % 0 mm
20:50 25.1 °C 20.1 °C 1011.7 hPa SE 4.8 km/h 14.5 km/h 74 % 0 mm
20:55 25.1 °C 20.1 °C 1011.7 hPa ESE 12.9 km/h 12.9 km/h 74 % 0 mm
21:00 25 °C 20.3 °C 1012.1 hPa ESE 8 km/h 12.9 km/h 75 % 0 mm
21:05 24.9 °C 20.2 °C 1012.1 hPa SSE 6.4 km/h 12.9 km/h 75 % 0 mm
21:10 24.8 °C 20.1 °C 1012.1 hPa SE 8 km/h 12.9 km/h 75 % 0 mm
21:15 24.7 °C 20.2 °C 1012.1 hPa ENE 8 km/h 12.9 km/h 76 % 0 mm
21:20 24.6 °C 20.1 °C 1012.4 hPa SSE 3.2 km/h 14.5 km/h 76 % 0 mm
21:25 24.6 °C 20.1 °C 1012.4 hPa SE 4.8 km/h 14.5 km/h 76 % 0 mm
21:26 24.5 °C 20.2 °C 1012.4 hPa ESE 4.8 km/h 14.5 km/h 77 % 0 mm
21:31 24.4 °C 20.1 °C 1012.4 hPa SE 4.8 km/h 14.5 km/h 77 % 0 mm
21:36 24.4 °C 20.1 °C 1012.4 hPa ESE 6.4 km/h 9.7 km/h 77 % 0 mm
21:41 24.3 °C 20 °C 1012.4 hPa ESE 12.9 km/h 12.9 km/h 77 % 0 mm
21:46 24.3 °C 20.2 °C 1012.4 hPa SSE 3.2 km/h 17.7 km/h 78 % 0 mm
21:52 24.2 °C 20.1 °C 1012.4 hPa ESE 9.7 km/h 17.7 km/h 78 % 0 mm
21:57 24.1 °C 20.2 °C 1012.4 hPa ESE 3.2 km/h 17.7 km/h 79 % 0 mm
22:02 24.1 °C 20.2 °C 1012.4 hPa SE 6.4 km/h 17.7 km/h 79 % 0 mm
22:07 24 °C 20.1 °C 1012.4 hPa SE 4.8 km/h 17.7 km/h 79 % 0 mm
22:12 23.9 °C 20.2 °C 1012.8 hPa ESE 9.7 km/h 17.7 km/h 80 % 0 mm
22:17 23.9 °C 20.2 °C 1012.8 hPa SE 4.8 km/h 9.7 km/h 80 % 0 mm
22:22 23.9 °C 20.2 °C 1012.8 hPa ESE 11.3 km/h 12.9 km/h 80 % 0 mm
22:27 23.9 °C 20.2 °C 1012.8 hPa ESE 11.3 km/h 14.5 km/h 80 % 0 mm
22:32 23.9 °C 20.2 °C 1012.8 hPa ESE 6.4 km/h 14.5 km/h 80 % 0 mm
22:37 23.9 °C 20.4 °C 1012.8 hPa SSE 9.7 km/h 14.5 km/h 81 % 0 mm
22:42 23.9 °C 20.4 °C 1012.8 hPa East 9.7 km/h 14.5 km/h 81 % 0 mm
22:47 23.9 °C 20.4 °C 1013.1 hPa ESE 11.3 km/h 14.5 km/h 81 % 0 mm
22:52 23.8 °C 20.3 °C 1012.8 hPa ESE 6.4 km/h 14.5 km/h 81 % 0 mm
22:57 23.8 °C 20.5 °C 1012.8 hPa East 4.8 km/h 12.9 km/h 82 % 0 mm
23:02 23.8 °C 20.5 °C 1012.8 hPa SE 6.4 km/h 12.9 km/h 82 % 0 mm
23:07 23.7 °C 20.4 °C 1012.8 hPa SSE 3.2 km/h 12.9 km/h 82 % 0 mm
23:12 23.7 °C 20.6 °C 1012.8 hPa SSE 4.8 km/h 12.9 km/h 83 % 0 mm
23:17 23.6 °C 20.5 °C 1012.8 hPa SE 4.8 km/h 17.7 km/h 83 % 0 mm
23:22 23.6 °C 20.5 °C 1012.8 hPa ESE 3.2 km/h 17.7 km/h 83 % 0 mm
23:27 23.4 °C 20.5 °C 1012.8 hPa ESE 1.6 km/h 17.7 km/h 84 % 0 mm
23:32 23.4 °C 20.5 °C 1012.8 hPa East 4.8 km/h 9.7 km/h 84 % 0 mm
23:37 23.3 °C 20.4 °C 1012.8 hPa SE 1.6 km/h 8 km/h 84 % 0 mm
23:42 23.2 °C 20.3 °C 1012.8 hPa East 3.2 km/h 8 km/h 84 % 0 mm
23:47 23.1 °C 20.4 °C 1012.8 hPa ESE 4.8 km/h 6.4 km/h 85 % 0 mm
23:52 23.1 °C 20.4 °C 1012.8 hPa Calm   6.4 km/h 85 % 0 mm
23:57 22.9 °C 20.4 °C 1012.8 hPa ESE 4.8 km/h 4.8 km/h 86 % 0 mm
Spring, Texas: Villages of Bridgestone
Compliments of Weather Underground - 2.75 mb

Script developed by  Jim McMurry - jmcmurry@mwt.net Adapted for the template by  Wim van der Kuil - Leuven-Template.eu

You find our weather info also at:

UK Metoffice

WeatherCloud

Weather Underground

Mid-South Weather Network

AWEKAS

Citizen Weather Observer Program (CWOP)

HAMweather, WeatherForYou, PWS Weather

Equipment we use:

Weather-station
Davis Vantage Vue

Weather-program
Meteohub

Weather-server
Debian 7.9 x86 (Guest)

Provider
DreamHost

Davis Vantage Vue

Meteohub

Debian 7.9 x86 (Guest)

DreamHost